createdAt,value
2019-02-07T00:00:58.064Z,6.56
2019-02-07T00:03:27.765Z,6.55
2019-02-07T00:05:56.940Z,6.56
2019-02-07T00:08:26.138Z,6.64
2019-02-07T00:10:55.331Z,6.59
2019-02-07T00:13:25.392Z,6.61
2019-02-07T00:15:54.908Z,6.56
2019-02-07T00:18:24.493Z,6.56
2019-02-07T00:20:53.689Z,6.55
2019-02-07T00:23:23.650Z,6.60
2019-02-07T00:25:52.864Z,6.60
2019-02-07T00:28:22.082Z,6.57
2019-02-07T00:30:51.247Z,6.59
2019-02-07T00:33:20.949Z,6.56
2019-02-07T00:35:50.155Z,6.57
2019-02-07T00:38:19.380Z,6.58
2019-02-07T00:40:49.154Z,6.51
2019-02-07T00:43:18.413Z,6.51
2019-02-07T00:45:47.714Z,6.59
2019-02-07T00:48:16.924Z,6.54
2019-02-07T00:50:46.884Z,6.57
2019-02-07T00:53:16.040Z,6.61
2019-02-07T00:55:46.125Z,6.59
2019-02-07T00:58:16.117Z,6.69
2019-02-07T01:00:45.258Z,6.59
2019-02-07T01:03:14.483Z,6.56
2019-02-07T01:05:43.890Z,6.57
2019-02-07T01:08:13.061Z,6.59
2019-02-07T01:10:42.315Z,6.56
2019-02-07T01:13:11.813Z,6.56
2019-02-07T01:15:41.505Z,6.58
2019-02-07T01:18:10.719Z,6.58
2019-02-07T01:20:40.649Z,6.60
2019-02-07T01:23:09.841Z,6.57
2019-02-07T01:25:39.102Z,6.56
2019-02-07T01:28:08.255Z,6.56
2019-02-07T01:30:37.436Z,6.54
2019-02-07T01:33:06.645Z,6.53
2019-02-07T01:35:36.937Z,6.55
2019-02-07T01:38:06.479Z,6.51
2019-02-07T01:40:35.835Z,6.47
2019-02-07T01:43:05.399Z,6.43
2019-02-07T01:45:34.588Z,6.45
2019-02-07T01:48:03.856Z,6.45
2019-02-07T01:50:33.508Z,6.39
2019-02-07T01:53:02.706Z,6.41
2019-02-07T01:55:31.875Z,6.43
2019-02-07T01:58:01.052Z,6.40
2019-02-07T02:00:30.895Z,6.40
2019-02-07T02:03:00.202Z,6.40
2019-02-07T02:05:29.813Z,6.38
2019-02-07T02:07:59.733Z,6.46
2019-02-07T02:10:28.988Z,6.37
2019-02-07T02:12:58.491Z,6.36
2019-02-07T02:15:28.034Z,6.40
2019-02-07T02:17:57.260Z,6.41
2019-02-07T02:20:27.077Z,6.41
2019-02-07T02:22:56.441Z,6.39
2019-02-07T02:25:25.896Z,6.42
2019-02-07T02:27:55.163Z,6.43
2019-02-07T02:30:26.315Z,6.45
2019-02-07T02:32:55.491Z,6.46
2019-02-07T02:35:25.062Z,6.45
2019-02-07T02:37:54.223Z,6.45
2019-02-07T02:40:23.953Z,6.44
2019-02-07T02:42:53.504Z,6.45
2019-02-07T02:45:23.629Z,6.42
2019-02-07T02:47:53.620Z,6.48
2019-02-07T02:50:23.267Z,6.40
2019-02-07T02:52:52.779Z,6.37
2019-02-07T02:55:30.394Z,6.41
2019-02-07T02:57:59.857Z,6.34
2019-02-07T03:00:50.860Z,6.32
2019-02-07T03:03:47.846Z,6.36
2019-02-07T03:06:35.918Z,6.29
2019-02-07T03:09:34.836Z,6.33
2019-02-07T03:12:18.313Z,6.32
2019-02-07T03:15:05.323Z,6.31
2019-02-07T03:17:50.785Z,6.30
2019-02-07T03:20:45.251Z,6.30
2019-02-07T03:23:32.199Z,6.32
2019-02-07T03:26:19.092Z,6.29
2019-02-07T03:29:16.106Z,6.36
2019-02-07T03:32:07.012Z,6.38
2019-02-07T03:34:46.779Z,6.35
2019-02-07T03:37:38.476Z,6.26
2019-02-07T03:40:30.757Z,6.24
2019-02-07T03:43:18.133Z,6.24
2019-02-07T03:46:04.689Z,6.26
2019-02-07T03:48:55.752Z,6.26
2019-02-07T03:51:35.436Z,6.23
2019-02-07T03:54:22.392Z,6.16
2019-02-07T03:57:26.192Z,6.20
2019-02-07T04:00:23.898Z,6.14
2019-02-07T04:03:11.013Z,6.12
2019-02-07T04:06:05.367Z,6.09
2019-02-07T04:08:53.480Z,6.11
2019-02-07T04:12:00.094Z,6.14
2019-02-07T04:14:47.270Z,6.09
2019-02-07T04:17:27.977Z,6.16
2019-02-07T04:20:24.940Z,6.11
2019-02-07T04:23:16.218Z,6.11
2019-02-07T04:26:16.442Z,6.11
2019-02-07T04:29:10.586Z,6.05
2019-02-07T04:31:57.876Z,6.11
2019-02-07T04:34:51.832Z,6.10
2019-02-07T04:37:58.762Z,6.09
2019-02-07T04:40:53.311Z,6.06
2019-02-07T04:43:39.986Z,6.07
2019-02-07T04:46:27.258Z,6.09
2019-02-07T04:48:59.791Z,6.09
2019-02-07T04:51:42.976Z,6.10
2019-02-07T04:54:49.732Z,6.12
2019-02-07T04:57:30.215Z,6.11
2019-02-07T05:00:18.906Z,6.13
2019-02-07T05:03:07.008Z,6.21
2019-02-07T05:05:53.556Z,6.19
2019-02-07T05:08:48.316Z,6.21
2019-02-07T05:11:42.606Z,6.22
2019-02-07T05:14:30.991Z,6.24
2019-02-07T05:17:15.175Z,6.27
2019-02-07T05:19:59.896Z,6.26
2019-02-07T05:22:48.073Z,6.27
2019-02-07T05:25:45.811Z,6.28
2019-02-07T05:28:37.090Z,6.27
2019-02-07T05:31:31.893Z,6.23
2019-02-07T05:34:14.318Z,6.25
2019-02-07T05:37:05.626Z,6.25
2019-02-07T05:39:54.866Z,6.24
2019-02-07T05:42:41.809Z,6.28
2019-02-07T05:45:33.422Z,6.27
2019-02-07T05:48:20.526Z,6.27
2019-02-07T05:51:09.007Z,6.33
2019-02-07T05:54:00.109Z,6.29
2019-02-07T05:56:48.104Z,6.36
2019-02-07T05:59:27.842Z,6.39
2019-02-07T06:02:09.698Z,6.42
2019-02-07T06:05:09.835Z,6.46
2019-02-07T06:08:04.073Z,6.51
2019-02-07T06:10:55.225Z,6.50
2019-02-07T06:13:52.770Z,6.51
2019-02-07T06:16:35.841Z,6.55
2019-02-07T06:19:33.103Z,6.60
2019-02-07T06:22:24.813Z,6.67
2019-02-07T06:25:22.783Z,6.64
2019-02-07T06:28:09.762Z,6.65
2019-02-07T06:30:47.204Z,6.64
2019-02-07T06:33:38.084Z,6.64
2019-02-07T06:36:27.003Z,6.64
2019-02-07T06:39:07.916Z,6.65
2019-02-07T06:42:05.853Z,6.67
2019-02-07T06:44:51.509Z,6.66
2019-02-07T06:47:39.434Z,6.71
2019-02-07T06:50:30.502Z,6.73
2019-02-07T06:53:32.517Z,6.76
2019-02-07T06:56:30.669Z,6.79
2019-02-07T06:59:24.894Z,6.81
2019-02-07T07:02:15.762Z,6.80
2019-02-07T07:04:50.142Z,6.77
2019-02-07T07:07:30.341Z,6.86
2019-02-07T07:10:15.820Z,6.81
2019-02-07T07:13:21.760Z,6.81
2019-02-07T07:16:13.305Z,6.83
2019-02-07T07:19:06.361Z,6.82
2019-02-07T07:21:54.812Z,6.83
2019-02-07T07:24:48.929Z,6.82
2019-02-07T07:27:35.833Z,6.80
2019-02-07T07:30:27.021Z,6.77
2019-02-07T07:33:19.437Z,6.77
2019-02-07T07:35:59.702Z,6.78
2019-02-07T07:38:52.868Z,6.77
2019-02-07T07:41:51.787Z,6.84
2019-02-07T07:44:39.988Z,6.79
2019-02-07T07:47:35.996Z,6.84
2019-02-07T07:50:23.757Z,6.86
2019-02-07T07:53:10.916Z,6.87
2019-02-07T07:55:55.776Z,6.91
2019-02-07T07:58:47.329Z,6.89
2019-02-07T08:01:34.538Z,6.93
2019-02-07T08:04:18.532Z,6.93
2019-02-07T08:07:12.614Z,6.97
2019-02-07T08:09:57.077Z,6.96
2019-02-07T08:12:45.217Z,7.00
2019-02-07T08:15:29.021Z,7.01
2019-02-07T08:18:16.421Z,7.02
2019-02-07T08:21:03.649Z,7.05
2019-02-07T08:23:52.089Z,7.06
2019-02-07T08:26:39.157Z,7.08
2019-02-07T08:29:37.320Z,7.09
2019-02-07T08:32:16.142Z,7.14
2019-02-07T08:34:57.982Z,7.09
2019-02-07T08:37:58.449Z,7.15
2019-02-07T08:40:45.425Z,7.15
2019-02-07T08:43:34.668Z,7.26
2019-02-07T08:46:25.244Z,7.36
2019-02-07T08:49:14.747Z,7.54
2019-02-07T08:52:03.392Z,7.60
2019-02-07T08:54:49.805Z,7.68
2019-02-07T08:57:36.822Z,7.63
2019-02-07T09:00:26.078Z,7.76
2019-02-07T09:03:13.223Z,7.67
2019-02-07T09:06:10.663Z,7.91
2019-02-07T09:09:07.676Z,7.91
2019-02-07T09:12:05.940Z,8.08
2019-02-07T09:14:52.473Z,8.13
2019-02-07T09:17:48.096Z,8.24
2019-02-07T09:20:32.289Z,8.30
2019-02-07T09:23:11.615Z,8.13
2019-02-07T09:25:58.790Z,8.08
2019-02-07T09:28:49.968Z,8.08
2019-02-07T09:31:36.924Z,8.23
2019-02-07T09:34:32.401Z,8.21
2019-02-07T09:37:19.187Z,8.18
2019-02-07T09:40:05.619Z,8.15
2019-02-07T09:42:52.796Z,8.19
2019-02-07T09:45:40.509Z,8.20
2019-02-07T09:48:22.350Z,8.09
2019-02-07T09:51:10.895Z,8.04
2019-02-07T09:54:09.446Z,8.08
2019-02-07T09:56:58.172Z,8.28
2019-02-07T09:59:56.069Z,8.13
2019-02-07T10:02:32.161Z,8.06
2019-02-07T10:05:23.614Z,8.46
2019-02-07T10:08:11.873Z,8.44
2019-02-07T10:10:48.223Z,8.40
2019-02-07T10:13:25.033Z,8.36
2019-02-07T10:16:18.933Z,8.39
2019-02-07T10:19:14.699Z,8.35
2019-02-07T10:22:15.275Z,8.34
2019-02-07T10:25:06.964Z,8.11
2019-02-07T10:28:01.491Z,8.09
2019-02-07T10:30:48.601Z,8.16
2019-02-07T10:33:28.743Z,8.15
2019-02-07T10:36:26.174Z,8.16
2019-02-07T10:39:13.766Z,8.25
2019-02-07T10:42:12.216Z,8.25
2019-02-07T10:45:09.575Z,8.10
2019-02-07T10:48:00.005Z,8.13
2019-02-07T10:50:48.572Z,8.07
2019-02-07T10:53:39.798Z,8.00
2019-02-07T10:56:27.906Z,8.06
2019-02-07T10:59:31.192Z,8.07
2019-02-07T11:02:20.044Z,8.14
2019-02-07T11:05:08.194Z,8.31
2019-02-07T11:07:56.311Z,8.43
2019-02-07T11:10:43.171Z,8.43
2019-02-07T11:13:27.183Z,8.44
2019-02-07T11:16:16.498Z,8.34
2019-02-07T11:19:04.941Z,8.33
2019-02-07T11:22:11.579Z,8.17
2019-02-07T11:24:58.438Z,8.16
2019-02-07T11:27:44.213Z,8.19
2019-02-07T11:30:33.476Z,8.29
2019-02-07T11:33:24.787Z,8.35
2019-02-07T11:36:31.604Z,8.39
2019-02-07T11:39:18.968Z,8.45
2019-02-07T11:42:09.869Z,8.49
2019-02-07T11:44:56.613Z,8.39
2019-02-07T11:47:47.661Z,8.40
2019-02-07T11:50:37.241Z,8.50
2019-02-07T11:53:38.025Z,8.60
2019-02-07T11:56:24.730Z,8.59
2019-02-07T11:59:20.634Z,8.73
2019-02-07T12:02:27.478Z,9.09
2019-02-07T12:05:17.291Z,9.17
2019-02-07T12:08:04.168Z,9.35
2019-02-07T12:10:58.655Z,9.23
2019-02-07T12:13:45.901Z,9.16
2019-02-07T12:16:53.362Z,9.24
2019-02-07T12:19:40.704Z,9.20
2019-02-07T12:22:28.869Z,9.26
2019-02-07T12:25:19.047Z,9.36
2019-02-07T12:27:59.943Z,9.46
2019-02-07T12:30:46.768Z,9.18
2019-02-07T12:33:30.927Z,9.16
2019-02-07T12:36:31.146Z,9.27
2019-02-07T12:39:17.992Z,9.36
2019-02-07T12:42:07.030Z,9.26
2019-02-07T12:45:03.307Z,9.37
2019-02-07T12:48:06.512Z,9.51
2019-02-07T12:50:53.573Z,9.37
2019-02-07T12:53:40.986Z,9.48
2019-02-07T12:56:29.403Z,9.30
2019-02-07T12:59:17.854Z,9.30
2019-02-07T13:02:06.309Z,9.32
2019-02-07T13:04:54.467Z,9.31
2019-02-07T13:07:54.885Z,9.31
2019-02-07T13:10:55.506Z,9.12
2019-02-07T13:13:56.175Z,9.22
2019-02-07T13:16:53.764Z,9.10
2019-02-07T13:19:47.965Z,9.08
2019-02-07T13:22:54.575Z,9.10
2019-02-07T13:25:37.898Z,9.28
2019-02-07T13:28:23.395Z,9.26
2019-02-07T13:31:11.072Z,9.57
2019-02-07T13:33:59.251Z,9.39
2019-02-07T13:36:40.398Z,9.32
2019-02-07T13:39:28.428Z,9.37
2019-02-07T13:42:16.366Z,9.49
2019-02-07T13:45:07.518Z,9.42
2019-02-07T13:47:49.906Z,9.47
2019-02-07T13:50:47.731Z,9.40
2019-02-07T13:53:37.262Z,9.32
2019-02-07T13:56:29.342Z,9.27
2019-02-07T13:59:29.355Z,9.05
2019-02-07T14:02:17.448Z,9.00
2019-02-07T14:05:08.820Z,9.09
2019-02-07T14:08:00.096Z,9.00
2019-02-07T14:10:54.192Z,9.04
2019-02-07T14:13:45.146Z,9.06
2019-02-07T14:16:36.117Z,9.10
2019-02-07T14:19:19.046Z,9.15
2019-02-07T14:22:15.433Z,9.21
2019-02-07T14:25:03.581Z,9.18
2019-02-07T14:27:57.738Z,9.34
2019-02-07T14:30:56.435Z,9.63
2019-02-07T14:33:43.768Z,9.60
2019-02-07T14:36:30.841Z,9.45
2019-02-07T14:39:31.885Z,9.59
2019-02-07T14:42:20.397Z,9.76
2019-02-07T14:45:08.931Z,9.74
2019-02-07T14:47:38.154Z,9.51
2019-02-07T14:50:15.071Z,9.47
2019-02-07T14:52:39.051Z,9.42
2019-02-07T14:55:09.413Z,9.34
2019-02-07T14:57:39.327Z,9.37
2019-02-07T15:00:12.361Z,9.31
2019-02-07T15:02:41.575Z,9.24
2019-02-07T15:05:11.536Z,9.28
2019-02-07T15:07:40.789Z,9.19
2019-02-07T15:10:13.017Z,9.17
2019-02-07T15:12:42.218Z,9.29
2019-02-07T15:15:13.350Z,9.12
2019-02-07T15:17:42.932Z,9.10
2019-02-07T15:20:12.695Z,9.05
2019-02-07T15:22:42.051Z,8.95
2019-02-07T15:25:11.889Z,8.97
2019-02-07T15:27:41.384Z,8.93
2019-02-07T15:30:14.006Z,8.98
2019-02-07T15:32:43.145Z,8.89
2019-02-07T15:35:19.308Z,8.85
2019-02-07T15:37:48.471Z,8.83
2019-02-07T15:40:21.312Z,8.79
2019-02-07T15:42:50.556Z,8.71
2019-02-07T15:45:20.090Z,8.70
2019-02-07T15:47:49.237Z,8.63
2019-02-07T15:50:21.772Z,8.59
2019-02-07T15:52:52.259Z,8.56
2019-02-07T15:55:21.530Z,8.51
2019-02-07T15:57:50.806Z,8.53
2019-02-07T16:00:39.799Z,8.50
2019-02-07T16:03:13.695Z,8.48
2019-02-07T16:05:42.980Z,8.48
2019-02-07T16:08:12.916Z,8.43
2019-02-07T16:10:42.058Z,8.47
2019-02-07T16:13:11.598Z,8.44
2019-02-07T16:15:40.758Z,8.40
2019-02-07T16:18:10.335Z,8.40
2019-02-07T16:20:48.671Z,8.37
2019-02-07T16:23:10.804Z,8.28
2019-02-07T16:25:40.339Z,8.29
2019-02-07T16:28:09.868Z,8.27
2019-02-07T16:30:39.136Z,8.31
2019-02-07T16:33:10.046Z,8.28
2019-02-07T16:35:39.516Z,8.35
2019-02-07T16:38:09.045Z,8.32
2019-02-07T16:40:38.516Z,8.29
2019-02-07T16:43:08.047Z,8.29
2019-02-07T16:45:37.579Z,8.29
2019-02-07T16:48:06.839Z,8.30
2019-02-07T16:50:36.471Z,8.31
2019-02-07T16:53:06.605Z,8.28
2019-02-07T16:55:35.835Z,8.36
2019-02-07T16:58:05.589Z,8.36
2019-02-07T17:00:34.935Z,8.33
2019-02-07T17:03:04.380Z,8.36
2019-02-07T17:05:33.558Z,8.30
2019-02-07T17:08:03.375Z,8.30
2019-02-07T17:10:33.396Z,8.28
2019-02-07T17:13:02.931Z,8.23
2019-02-07T17:15:32.666Z,8.20
2019-02-07T17:18:01.819Z,8.22
2019-02-07T17:20:31.627Z,8.22
2019-02-07T17:23:00.772Z,8.22
2019-02-07T17:25:31.053Z,8.17
2019-02-07T17:28:00.204Z,8.20
2019-02-07T17:30:29.976Z,8.20
2019-02-07T17:32:59.493Z,8.22
2019-02-07T17:35:29.073Z,8.17
2019-02-07T17:37:58.604Z,8.19
2019-02-07T17:40:27.881Z,8.15
2019-02-07T17:42:58.584Z,8.13
2019-02-07T17:45:28.773Z,8.02
2019-02-07T17:47:58.860Z,7.94
2019-02-07T17:50:30.183Z,7.95
2019-02-07T17:52:59.516Z,7.84
2019-02-07T17:55:28.902Z,7.84
2019-02-07T17:57:58.066Z,7.77
2019-02-07T18:00:40.624Z,7.70
2019-02-07T18:03:10.257Z,7.79
2019-02-07T18:05:40.019Z,7.83
2019-02-07T18:08:09.421Z,7.80
2019-02-07T18:10:38.990Z,7.78
2019-02-07T18:13:08.537Z,7.68
2019-02-07T18:15:37.739Z,7.61
2019-02-07T18:18:07.488Z,7.71
2019-02-07T18:20:36.686Z,7.77
2019-02-07T18:23:05.870Z,7.81
2019-02-07T18:25:35.402Z,7.81
2019-02-07T18:28:05.394Z,7.86
2019-02-07T18:30:34.566Z,7.80
2019-02-07T18:33:04.049Z,7.71
2019-02-07T18:35:33.627Z,6.62
2019-02-07T18:38:03.168Z,6.00
2019-02-07T18:40:32.536Z,5.77
2019-02-07T18:43:02.422Z,5.44
2019-02-07T18:45:31.705Z,5.37
2019-02-07T18:48:01.267Z,5.39
2019-02-07T18:50:32.780Z,5.35
2019-02-07T18:53:02.424Z,5.43
2019-02-07T18:55:31.788Z,5.03
2019-02-07T18:58:01.707Z,4.79
2019-02-07T19:00:32.516Z,4.69
2019-02-07T19:03:01.984Z,4.67
2019-02-07T19:05:31.558Z,4.63
2019-02-07T19:08:00.911Z,4.68
2019-02-07T19:10:31.133Z,4.73
2019-02-07T19:13:02.141Z,4.79
2019-02-07T19:15:54.397Z,4.85
2019-02-07T19:18:24.975Z,4.94
2019-02-07T19:20:54.748Z,4.99
2019-02-07T19:23:24.549Z,5.02
2019-02-07T19:25:53.871Z,5.02
2019-02-07T19:28:23.450Z,5.02
2019-02-07T19:30:53.251Z,5.01
2019-02-07T19:33:22.704Z,4.98
2019-02-07T19:35:51.996Z,4.97
2019-02-07T19:38:22.079Z,4.99
2019-02-07T19:40:51.632Z,4.99
2019-02-07T19:43:21.495Z,5.00
2019-02-07T19:45:51.342Z,5.07
2019-02-07T19:48:21.122Z,5.12
2019-02-07T19:50:50.521Z,5.14
2019-02-07T19:53:20.075Z,5.15
2019-02-07T19:55:49.874Z,5.24
2019-02-07T19:58:19.056Z,5.27
2019-02-07T20:00:48.251Z,5.25
2019-02-07T20:03:17.741Z,5.30
2019-02-07T20:05:46.988Z,5.25
2019-02-07T20:08:18.298Z,5.30
2019-02-07T20:10:47.467Z,5.22
2019-02-07T20:13:17.068Z,5.19
2019-02-07T20:15:47.539Z,5.12
2019-02-07T20:18:17.096Z,5.06
2019-02-07T20:20:47.277Z,5.09
2019-02-07T20:23:16.559Z,5.03
2019-02-07T20:25:46.195Z,5.05
2019-02-07T20:28:15.726Z,5.06
2019-02-07T20:30:45.532Z,5.09
2019-02-07T20:33:16.901Z,5.14
2019-02-07T20:35:46.672Z,5.14
2019-02-07T20:38:15.905Z,5.17
2019-02-07T20:40:45.895Z,5.21
2019-02-07T20:43:15.416Z,5.21
2019-02-07T20:45:44.635Z,5.22
2019-02-07T20:48:13.035Z,5.30
2019-02-07T20:50:42.684Z,5.28
2019-02-07T20:53:13.881Z,5.43
2019-02-07T20:55:43.447Z,5.52
2019-02-07T20:58:12.847Z,5.72
2019-02-07T21:00:42.050Z,5.79
2019-02-07T21:03:11.383Z,5.82
2019-02-07T21:05:41.307Z,5.91
2019-02-07T21:08:10.517Z,5.97
2019-02-07T21:10:39.998Z,5.94
2019-02-07T21:13:09.430Z,5.95
2019-02-07T21:15:38.700Z,5.96
2019-02-07T21:18:07.842Z,5.90
2019-02-07T21:20:37.052Z,5.87
2019-02-07T21:23:07.107Z,5.78
2019-02-07T21:25:45.023Z,5.70
2019-02-07T21:28:14.523Z,5.59
2019-02-07T21:30:44.044Z,5.57
2019-02-07T21:33:13.244Z,5.54
2019-02-07T21:35:42.543Z,5.48
2019-02-07T21:38:12.047Z,5.50
2019-02-07T21:40:41.664Z,5.54
2019-02-07T21:43:12.169Z,5.47
2019-02-07T21:45:41.390Z,5.45
2019-02-07T21:48:11.600Z,5.39
2019-02-07T21:50:40.766Z,5.40
2019-02-07T21:53:10.955Z,5.38
2019-02-07T21:55:40.320Z,5.39
2019-02-07T21:58:09.673Z,5.33
2019-02-07T22:00:40.911Z,5.32
2019-02-07T22:03:11.575Z,5.30
2019-02-07T22:05:40.738Z,5.29
2019-02-07T22:08:10.335Z,5.32
2019-02-07T22:10:40.857Z,5.43
2019-02-07T22:13:10.978Z,5.41
2019-02-07T22:15:40.152Z,5.36
2019-02-07T22:18:10.551Z,5.31
2019-02-07T22:20:39.988Z,5.33
2019-02-07T22:23:09.516Z,5.31
2019-02-07T22:25:38.699Z,5.46
2019-02-07T22:28:08.896Z,5.58
2019-02-07T22:30:38.423Z,5.65
2019-02-07T22:33:08.456Z,5.69
2019-02-07T22:35:37.682Z,5.78
2019-02-07T22:38:08.196Z,5.81
2019-02-07T22:40:37.673Z,5.85
2019-02-07T22:43:07.577Z,5.86
2019-02-07T22:45:37.275Z,5.90
2019-02-07T22:48:08.288Z,5.95
2019-02-07T22:50:37.449Z,5.97
2019-02-07T22:53:07.139Z,5.99
2019-02-07T22:55:36.731Z,5.99
2019-02-07T22:58:08.119Z,6.05
2019-02-07T23:01:28.183Z,6.10
2019-02-07T23:04:02.477Z,6.08
2019-02-07T23:06:32.026Z,6.08
2019-02-07T23:09:01.204Z,5.96
2019-02-07T23:11:30.350Z,5.89
2019-02-07T23:13:59.534Z,5.78
2019-02-07T23:16:29.159Z,5.78
2019-02-07T23:18:58.395Z,5.71
2019-02-07T23:21:27.969Z,5.66
2019-02-07T23:23:57.215Z,5.68
2019-02-07T23:26:26.395Z,5.62
2019-02-07T23:28:55.565Z,5.54
2019-02-07T23:31:25.658Z,5.43
2019-02-07T23:33:55.187Z,5.43
2019-02-07T23:36:24.369Z,5.33
2019-02-07T23:38:53.580Z,5.26
2019-02-07T23:41:23.099Z,5.22
2019-02-07T23:43:52.252Z,5.12
2019-02-07T23:46:21.412Z,5.07
2019-02-07T23:48:50.735Z,5.07
2019-02-07T23:51:19.942Z,5.10
2019-02-07T23:53:49.443Z,5.05
2019-02-07T23:56:18.652Z,5.04
2019-02-07T23:58:47.802Z,5.06
